Ada, Minnesota
Current Conditions -  °F | °C
As of 7:55 PM on Saturday 22 Nov 2014 (Local Time) from K3N8 Reporting Station
Clear Clear  
Wind Chill: 27°   Ceiling: Unl
Heat Index: 35°   Visibility: 10mi
Dew Point: 29°   Wind: 12mph
Humidity: 79%   Direction: 160°SSE
Pressure: 29.41"   Gusts: NA
Location:  47.3°N, 96.52°W
Report Text: K3N8 230155Z AUTO 16010KT 10SM CLR 02/M01 A2941 RMK AO2 T00181015
Loading
Personal Weather Stations






























Interactive Weather Map New forecast layout! Learn more

10-Day Weather Forecast

Advertisements
Track Severe Weather on mobile